ベロオリゾンテ の空港の天気 - METARとTAF

タンクレド・ネヴェス国際空港 ( SBCF / CNF ) - ブラジル ミナスジェライス州ベロオリゾンテ
飛行場実況気象(Metar)
観測時間04/21 14:00 BRT (04/21 17:00 UTC)
風向・風速西 2m/s
視程10km以上
天気現象
全天の8割程度の雲 雲底高度 1220m
全天の4割程度の雲 雲底高度 3050m
気温27℃
湿度51%
気圧1016hPa
METARSBCF 211700Z 26004KT 9999 BKN040 SCT100 27/16 Q1016
過去の天気等 Google飛行場航空写真 Wunderground天気予報

過去48時間のMETAR

飛行場予報(TAF)
発表時間: 4/21 07:00 BRT (4/21 10:00 UTC)
予報対象時間: 21日9時 BRT ~ 22日9時 BRT
風向・風速北北東 3m/s
視程10km以上
なし
21日10時 BRT ~ 21日12時 BRT に徐々に
風向・風速南西 3m/s
21日20時 BRT ~ 21日22時 BRT に徐々に
風向・風速南東 3m/s
TAF SBCF 211000Z 2112/2212 03005KT CAVOK TX29/2118Z TN17/2209Z
BECMG 2113/2115 23005KT
BECMG 2123/2201 13005KT RMK PDB